Flight Track Log - Related Links

Times and Time Zones

All times are in EDT time to prevent confusion due to time zone crossing. See the N287MC flight status page for this flight to view local times or setup timezone preferences in your user account.

Time Position Orientation Groundspeed Altitude Reporting Facility
EDT Latitude Longitude Course Direction KTS MPH feet Rate Location/Type
Wed 07:57:25 AM 29.6122 -95.6572 174° South 76 87 600  Level Houston Center
Wed 07:58:26 AM 29.5611 -95.6511 174° South 196 226 2,600 2,589 Climbing Houston Center
Wed 07:59:51 AM 29.4878 -95.6472 177° South 195 224 6,900 3,082 Climbing Houston Center
Wed 08:00:52 AM 29.4275 -95.6458 179° South 212 244 10,100 2,829 Climbing Houston Center
Wed 08:01:54 AM 29.3625 -95.6597 191° South 242 278 12,700 2,488 Climbing Houston Center
Wed 08:02:55 AM 29.3019 -95.7144 218° Southwest 273 314 15,200 2,410 Climbing Houston Center
Wed 08:03:56 AM 29.2336 -95.7653 213° Southwest 286 329 17,600 2,213 Climbing Houston Center
Wed 08:04:57 AM 29.1519 -95.8419 219° Southwest 314 361 19,700 1,902 Climbing Houston Center
Wed 08:05:59 AM 29.0875 -95.9203 227° Southwest 334 384 21,500 1,756 Climbing Houston Center
Wed 08:07:00 AM 29.0575 -96.0183 251° West 336 387 23,300 1,770 Climbing Houston Center
Wed 08:08:01 AM 29.0444 -96.1256 262° West 340 391 25,100 1,756 Climbing Houston Center
Wed 08:09:03 AM 29.0308 -96.2336 262° West 342 394 26,900 1,415 Climbing Houston Center
Wed 08:10:04 AM 29.0175 -96.3414 262° West 343 395 28,000 541 Climbing Houston Center
Wed 08:11:05 AM 29.0017 -96.4619 261° West 381 438 28,000  Level Houston Center
Wed 08:12:07 AM 28.9842 -96.5911 261° West 406 467 28,000  Level Houston Center
Wed 08:13:08 AM 28.9672 -96.7239 262° West 417 480 28,000  Level Houston Center
Wed 08:14:10 AM 28.9494 -96.8611 262° West 429 494 28,000  Level Houston Center
Wed 08:15:11 AM 28.9311 -96.9978 261° West 432 497 28,000  Level Houston Center
Wed 08:16:13 AM 28.9136 -97.1336 262° West 431 496 28,000  Level Houston Center
Wed 08:17:14 AM 28.8917 -97.2967 261° West 429 494 28,000  Level Houston Center
Wed 08:18:16 AM 28.8731 -97.4311 261° West 428 493 28,000  Level Houston Center
Wed 08:19:17 AM 28.8542 -97.5664 261° West 430 495 28,000  Level Houston Center
Wed 08:20:19 AM 28.8364 -97.7006 261° West 428 493 28,000  Level Houston Center
Wed 08:21:20 AM 28.8161 -97.8336 260° West 427 491 28,000  Level Houston Center
Wed 08:22:22 AM 28.7978 -97.9692 261° West 429 494 28,000  Level Houston Center
Wed 08:23:23 AM 28.7764 -98.1225 261° West 434 499 28,000  Level Houston Center
Wed 08:24:25 AM 28.7581 -98.2558 261° West 429 494 28,000  Level Houston Center
Wed 08:25:26 AM 28.7375 -98.4011 261° West 430 495 28,000 -585 Level Houston Center
Wed 08:26:28 AM 28.7186 -98.5350 261° West 429 494 26,800 -1,805 Descending Houston Center
Wed 08:27:29 AM 28.6992 -98.6644 260° West 419 482 24,300 -2,341 Descending Houston Center
Wed 08:28:31 AM 28.6808 -98.7811 260° West 415 478 22,000 -2,323 Descending Houston Center
Wed 08:29:33 AM 28.6617 -98.9097 260° West 414 476 19,500 -2,732 Descending Houston Center
Wed 08:30:34 AM 28.6400 -99.0556 260° West 399 459 16,400 -2,829 Descending Houston Center
Wed 08:31:36 AM 28.6239 -99.1731 261° West 385 443 13,700 -2,613 Descending Houston Center
Wed 08:32:38 AM 28.6056 -99.2858 260° West 372 428 11,000 -2,341 Descending Houston Center
Wed 08:33:39 AM 28.5914 -99.3839 261° West 330 380 8,900 -2,244 Descending Houston Center
Wed 08:34:41 AM 28.5778 -99.4706 260° West 294 338 6,400 -2,371 Descending Houston Center
Wed 08:35:43 AM 28.5650 -99.5572 260° West 283 326 4,000 -1,659 Descending Houston Center
Wed 08:36:44 AM 28.5519 -99.6414 260° West 277 319 3,000 -984 Descending Houston Center

Login

Don't have an account? Register now (free) for customized features, flight alerts, and more!